Weather reports worldwide

Advertisment
Tarvisio, Italy (16040): temperature & dewpoint: 26.06.2020 07:00:00 - 02.07.2020 07:00:00 (CEST)Tarvisio, Italy (16040): wind speed: 26.06.2020 07:00:00 - 02.07.2020 07:00:00 (CEST)Tarvisio, Italy (16040): wind direction: 26.06.2020 07:00:00 - 02.07.2020 07:00:00 (CEST)Tarvisio, Italy (16040): visibility: 26.06.2020 07:00:00 - 02.07.2020 07:00:00 (CEST)
Date & Time tt [°C] td [°C] ff [km/h] ff [kn] dd vv [km]
02.07.2020 07:00:00 - - - - - -
02.07.2020 06:00:00 - - - - - -
02.07.2020 05:00:00 - - - - - -
02.07.2020 04:00:00 - - - - - -
02.07.2020 03:00:00 - - - - - -
02.07.2020 02:00:00 - - - - - -
02.07.2020 01:00:00 - - - - - -
02.07.2020 00:00:00 - - - - - -
01.07.2020 23:00:00 - - - - - -
01.07.2020 22:00:00 - - - - - -
01.07.2020 21:00:00 - - - - - -
01.07.2020 20:00:00 18,0 17,4 4 2 SE 10
01.07.2020 19:00:00 18,0 17,0 4 2 W 10
01.07.2020 18:00:00 18,0 17,0 8 4 NW 10
01.07.2020 17:00:00 23,2 18,3 8 4 W 12
01.07.2020 16:00:00 25,0 15,0 8 4 W 10
01.07.2020 15:00:00 26,0 18,0 5 3 S 10
01.07.2020 14:00:00 26,0 17,9 9 5 S 15
01.07.2020 13:00:00 26,0 20,0 5 3 WSW 10
01.07.2020 12:00:00 25,0 19,0 4 2 WSW 10
01.07.2020 11:00:00 23,4 18,3 5 3 WSW 15
01.07.2020 10:00:00 21,0 17,0 4 2 ESE 10
01.07.2020 09:00:00 18,0 16,0 4 2 E 10
01.07.2020 08:00:00 15,4 14,3 0 0 N 15
01.07.2020 07:00:00 - - - - - -
01.07.2020 06:00:00 - - - - - -
01.07.2020 05:00:00 - - - - - -
01.07.2020 04:00:00 - - - - - -
01.07.2020 03:00:00 - - - - - -
01.07.2020 02:00:00 - - - - - -
01.07.2020 01:00:00 - - - - - -
01.07.2020 00:00:00 - - - - - -
30.06.2020 23:00:00 - - - - - -
30.06.2020 22:00:00 - - - - - -
30.06.2020 21:00:00 - - - - - -
30.06.2020 20:00:00 21,0 18,4 0 0 N 15
30.06.2020 19:00:00 22,0 18,0 4 2 ENE 10
30.06.2020 18:00:00 22,0 17,0 0 0 N 10
30.06.2020 17:00:00 21,8 17,2 4 2 NE 15
30.06.2020 16:00:00 21,0 17,0 5 3 SSE 10
30.06.2020 15:00:00 22,0 17,0 4 2 ENE 10
30.06.2020 14:00:00 19,6 15,7 5 3 SSE 15
30.06.2020 13:00:00 20,0 16,0 9 5 ESE 10
30.06.2020 12:00:00 18,0 15,0 0 0 N 10
30.06.2020 11:00:00 17,0 14,8 4 2 ESE 15
30.06.2020 10:00:00 15,0 14,0 2 1 ESE 10
30.06.2020 09:00:00 14,0 13,0 0 0 N 10
30.06.2020 08:00:00 13,2 12,4 0 0 N 6
30.06.2020 07:00:00 - - - - - -
30.06.2020 06:00:00 - - - - - -
30.06.2020 05:00:00 - - - - - -
30.06.2020 04:00:00 - - - - - -
30.06.2020 03:00:00 - - - - - -
30.06.2020 02:00:00 - - - - - -
30.06.2020 01:00:00 - - - - - -
30.06.2020 00:00:00 - - - - - -
29.06.2020 23:00:00 - - - - - -
29.06.2020 22:00:00 - - - - - -
29.06.2020 21:00:00 - - - - - -
29.06.2020 20:00:00 14,8 14,2 0 0 N 15
29.06.2020 19:00:00 17,0 15,0 0 0 N 10
29.06.2020 18:00:00 17,0 15,0 8 4 E 10
29.06.2020 17:00:00 15,6 15,3 0 0 N 15
29.06.2020 16:00:00 16,0 16,0 0 0 N 6
29.06.2020 15:00:00 16,0 16,0 4 2 NW 4,0
29.06.2020 14:00:00 22,0 17,2 4 2 NNW 15
29.06.2020 13:00:00 23,0 18,0 2 1 E 10
29.06.2020 12:00:00 20,0 19,0 9 5 WNW 10
29.06.2020 11:00:00 19,8 17,8 0 0 N 15
29.06.2020 10:00:00 20,0 17,0 4 2 NW 10
29.06.2020 09:00:00 19,0 17,0 0 0 N 10
29.06.2020 08:00:00 16,8 16,2 0 0 N 15
29.06.2020 07:00:00 - - - - - -
29.06.2020 06:00:00 - - - - - -
29.06.2020 05:00:00 - - - - - -
29.06.2020 04:00:00 - - - - - -
29.06.2020 03:00:00 - - - - - -
29.06.2020 02:00:00 - - - - - -
29.06.2020 01:00:00 - - - - - -
29.06.2020 00:00:00 - - - - - -
28.06.2020 23:00:00 - - - - - -
28.06.2020 22:00:00 - - - - - -
28.06.2020 21:00:00 - - - - - -
28.06.2020 20:00:00 22,4 18,0 8 4 NW 15
28.06.2020 19:00:00 24,0 17,0 8 4 W 10
28.06.2020 18:00:00 25,0 17,0 5 3 W 10
28.06.2020 17:00:00 24,4 17,2 0 0 N 15
28.06.2020 16:00:00 26,0 17,0 4 2 ENE 10
28.06.2020 15:00:00 26,0 17,0 5 3 S 10
28.06.2020 14:00:00 27,0 18,6 5 3 SSE 15
28.06.2020 13:00:00 26,0 16,0 4 2 E 10
28.06.2020 12:00:00 25,0 16,0 5 3 E 10
28.06.2020 11:00:00 23,2 16,5 4 2 E 15
28.06.2020 10:00:00 20,0 16,0 0 0 N 10
28.06.2020 09:00:00 18,0 15,0 0 0 N 10
28.06.2020 08:00:00 14,4 13,3 0 0 N 15
28.06.2020 07:00:00 - - - - - -
28.06.2020 06:00:00 - - - - - -
28.06.2020 05:00:00 - - - - - -
28.06.2020 04:00:00 - - - - - -
28.06.2020 03:00:00 - - - - - -
28.06.2020 02:00:00 - - - - - -
28.06.2020 01:00:00 - - - - - -
28.06.2020 00:00:00 - - - - - -
27.06.2020 23:00:00 - - - - - -
27.06.2020 22:00:00 - - - - - -
27.06.2020 21:00:00 - - - - - -
27.06.2020 20:00:00 22,8 16,6 2 1 WSW 10
27.06.2020 19:00:00 24,0 16,0 2 1 WSW 10
27.06.2020 18:00:00 25,0 16,0 5 3 WSW 10
27.06.2020 17:00:00 24,8 16,2 9 5 W 12
27.06.2020 16:00:00 25,0 17,0 9 5 SSW 10
27.06.2020 15:00:00 25,0 16,0 13 7 NE 10
27.06.2020 14:00:00 25,4 16,8 2 1 WSW 10
27.06.2020 13:00:00 25,0 17,0 4 2 W 10
27.06.2020 12:00:00 24,0 16,0 4 2 WNW 10
27.06.2020 11:00:00 22,6 15,5 5 3 NW 10
27.06.2020 10:00:00 21,0 16,0 11 6 WNW 10
27.06.2020 09:00:00 19,0 15,0 8 4 WNW 10
27.06.2020 08:00:00 15,6 14,0 4 2 WNW 10
27.06.2020 07:00:00 - - - - - -
27.06.2020 06:00:00 - - - - - -
27.06.2020 05:00:00 - - - - - -
27.06.2020 04:00:00 - - - - - -
27.06.2020 03:00:00 - - - - - -
27.06.2020 02:00:00 - - - - - -
27.06.2020 01:00:00 - - - - - -
27.06.2020 00:00:00 - - - - - -
26.06.2020 23:00:00 - - - - - -
26.06.2020 22:00:00 - - - - - -
26.06.2020 21:00:00 - - - - - -
26.06.2020 20:00:00 19,6 15,2 0 0 N 10
26.06.2020 19:00:00 21,0 15,0 9 5 W 10
26.06.2020 18:00:00 21,0 15,0 9 5 W 10
26.06.2020 17:00:00 20,2 15,0 8 4 W 10
26.06.2020 16:00:00 21,0 15,0 9 5 WSW 10
26.06.2020 15:00:00 21,0 15,0 5 3 W 10
26.06.2020 14:00:00 21,0 14,9 8 4 WNW 10
26.06.2020 13:00:00 20,0 15,0 9 5 W 10
26.06.2020 12:00:00 19,0 14,0 4 2 W 10
26.06.2020 11:00:00 17,0 13,1 2 1 WNW 10
26.06.2020 10:00:00 16,0 13,0 2 1 SSE 10
26.06.2020 09:00:00 13,0 11,0 0 0 N 10
26.06.2020 08:00:00 11,8 9,9 0 0 N 10
26.06.2020 07:00:00 - - - - - -

tt = temperature
td = dewpoint
ff = wind speed
dd = wind direction
vv = visibility

Next stations